Time;durP1;ratioP1;P1;durP2;ratioP2;P2;SDS_P1;SDS_P2;PMS_P1;PMS_P2;Temp;Humidity;BMP_temperature;BMP_pressure;BME280_temperature;BME280_humidity;BME280_pressure;Samples;Min_cycle;Max_cycle;Signal;HPM_P1;HPM_P2
2021/06/25 00:00:57;;;;;;;0.70;0.70;;;24.60;42.60;;;;;;5017574;28;20172;-49
2021/06/25 00:03:23;;;;;;;1.38;0.90;;;24.60;42.60;;;;;;5020757;28;20097;-55
2021/06/25 00:05:49;;;;;;;0.85;0.68;;;24.60;42.60;;;;;;5014728;28;20103;-51
2021/06/25 00:08:14;;;;;;;0.90;0.70;;;24.60;42.60;;;;;;5016230;28;20084;-54
2021/06/25 00:10:40;;;;;;;0.82;0.80;;;24.60;43.20;;;;;;5008990;28;20048;-54
2021/06/25 00:13:06;;;;;;;0.85;0.70;;;24.60;42.50;;;;;;5011033;28;20030;-51
2021/06/25 00:15:32;;;;;;;1.00;0.80;;;24.50;42.50;;;;;;5019524;28;20149;-50
2021/06/25 00:17:58;;;;;;;1.05;0.88;;;24.50;42.50;;;;;;5015132;28;20367;-50
2021/06/25 00:20:26;;;;;;;1.30;0.95;;;24.50;42.50;;;;;;5010286;28;20422;-52
2021/06/25 00:22:52;;;;;;;0.70;0.70;;;24.50;42.50;;;;;;5012128;28;20555;-51
2021/06/25 00:25:18;;;;;;;0.95;0.80;;;24.50;42.40;;;;;;5010429;28;20026;-51
2021/06/25 00:27:44;;;;;;;1.65;0.85;;;24.50;42.40;;;;;;5015106;28;20076;-51
2021/06/25 00:30:12;;;;;;;0.77;0.70;;;24.50;42.40;;;;;;5018857;28;20061;-53
2021/06/25 00:32:38;;;;;;;0.77;0.77;;;24.50;42.40;;;;;;5009811;28;20052;-50
2021/06/25 00:35:04;;;;;;;0.80;0.70;;;24.50;42.40;;;;;;5020796;28;20029;-57
2021/06/25 00:37:30;;;;;;;0.77;0.70;;;24.50;42.40;;;;;;5011859;28;20045;-47
2021/06/25 00:39:56;;;;;;;1.25;0.70;;;24.40;42.30;;;;;;5012923;28;20025;-50
2021/06/25 00:42:22;;;;;;;1.10;0.90;;;24.40;42.20;;;;;;5010909;28;20028;-52
2021/06/25 00:44:48;;;;;;;0.88;0.70;;;24.40;42.20;;;;;;5014714;28;20402;-51
2021/06/25 00:47:13;;;;;;;0.93;0.88;;;24.40;42.20;;;;;;5018533;28;20039;-54
2021/06/25 00:49:39;;;;;;;1.17;0.77;;;24.40;42.10;;;;;;5016916;28;20037;-53
2021/06/25 00:52:15;;;;;;;1.15;0.93;;;24.40;42.10;;;;;;5019177;28;20037;-54
2021/06/25 00:54:41;;;;;;;1.45;0.80;;;24.40;42.00;;;;;;5022505;28;20034;-51
2021/06/25 00:57:07;;;;;;;0.93;0.70;;;24.40;42.10;;;;;;5014369;28;20044;-52
2021/06/25 00:59:33;;;;;;;0.85;0.80;;;24.40;42.00;;;;;;5014275;28;20093;-49
2021/06/25 01:01:59;;;;;;;0.60;0.60;;;24.40;42.00;;;;;;5016372;28;20390;-52
2021/06/25 01:04:25;;;;;;;0.80;0.80;;;24.40;42.00;;;;;;5018575;28;20104;-52
2021/06/25 01:06:50;;;;;;;0.90;0.70;;;24.40;42.00;;;;;;5016110;28;20069;-52
2021/06/25 01:09:19;;;;;;;0.90;0.63;;;24.30;42.00;;;;;;5014011;28;20129;-53
2021/06/25 01:11:45;;;;;;;0.95;0.80;;;24.40;42.00;;;;;;5011041;28;20041;-54
2021/06/25 01:14:11;;;;;;;1.70;0.90;;;24.40;42.00;;;;;;5018026;28;20025;-51
2021/06/25 01:16:37;;;;;;;0.75;0.70;;;24.40;42.00;;;;;;5019297;28;20410;-52
2021/06/25 01:19:10;;;;;;;0.82;0.80;;;24.40;42.00;;;;;;5015384;28;20033;-50
2021/06/25 01:21:36;;;;;;;0.80;0.63;;;24.30;42.00;;;;;;5015424;28;20026;-51
2021/06/25 01:24:02;;;;;;;1.58;1.13;;;24.30;42.00;;;;;;5011771;28;20421;-53
2021/06/25 01:26:28;;;;;;;1.25;0.82;;;24.30;42.00;;;;;;5009164;28;20056;-53
2021/06/25 01:28:53;;;;;;;0.68;0.68;;;24.30;42.00;;;;;;5013544;28;20128;-52
2021/06/25 01:31:19;;;;;;;0.60;0.60;;;24.30;42.00;;;;;;5016466;28;20035;-52
2021/06/25 01:33:46;;;;;;;1.25;0.80;;;24.30;42.60;;;;;;5013563;28;20441;-47
2021/06/25 01:36:12;;;;;;;0.70;0.70;;;24.30;42.00;;;;;;5020797;28;20022;-52
2021/06/25 01:38:42;;;;;;;1.23;0.70;;;24.30;42.00;;;;;;5014594;28;20400;-54
2021/06/25 01:41:07;;;;;;;1.15;0.75;;;24.30;42.10;;;;;;5017239;28;20444;-52
2021/06/25 01:43:37;;;;;;;1.13;0.93;;;24.30;42.10;;;;;;5010501;28;20061;-53
2021/06/25 01:46:05;;;;;;;1.33;0.88;;;24.30;42.00;;;;;;5017593;28;20033;-53
2021/06/25 01:48:32;;;;;;;0.90;0.70;;;24.30;42.10;;;;;;5015460;28;20034;-54
2021/06/25 01:50:57;;;;;;;1.42;0.90;;;24.20;42.00;;;;;;5016274;28;20040;-49
2021/06/25 01:53:25;;;;;;;1.42;0.82;;;24.20;42.00;;;;;;5019581;28;20728;-51
2021/06/25 01:55:51;;;;;;;1.58;0.90;;;24.20;42.00;;;;;;5019167;28;20033;-52
2021/06/25 01:58:24;;;;;;;0.77;0.70;;;24.20;42.00;;;;;;5019082;28;20030;-49
2021/06/25 02:01:06;;;;;;;1.02;0.80;;;24.20;42.00;;;;;;5012301;28;20084;-54
2021/06/25 02:03:32;;;;;;;1.00;0.70;;;24.20;42.00;;;;;;5018875;28;20124;-53
2021/06/25 02:05:58;;;;;;;0.47;0.45;;;24.20;42.00;;;;;;5018437;28;20112;-52
2021/06/25 02:08:23;;;;;;;0.90;0.80;;;24.20;42.00;;;;;;5019558;28;20128;-55
2021/06/25 02:10:51;;;;;;;0.65;0.65;;;24.20;42.00;;;;;;5016965;28;20117;-54
2021/06/25 02:13:17;;;;;;;1.35;0.80;;;24.20;42.00;;;;;;5007517;28;20033;-52
2021/06/25 02:15:42;;;;;;;1.10;0.73;;;24.20;42.00;;;;;;5016959;28;20026;-51
2021/06/25 02:18:08;;;;;;;0.68;0.68;;;24.10;42.50;;;;;;5016060;28;20315;-58
2021/06/25 02:20:34;;;;;;;0.75;0.60;;;24.10;42.00;;;;;;5012055;28;20065;-55
2021/06/25 02:23:00;;;;;;;0.60;0.60;;;24.10;41.90;;;;;;5011983;28;20026;-53
2021/06/25 02:25:26;;;;;;;1.25;0.70;;;24.10;41.90;;;;;;5017023;28;20044;-52
2021/06/25 02:27:52;;;;;;;0.80;0.75;;;24.10;41.90;;;;;;5021872;28;20084;-55
2021/06/25 02:30:18;;;;;;;1.15;0.82;;;24.10;41.90;;;;;;5017687;28;20347;-49
2021/06/25 02:32:45;;;;;;;1.55;0.95;;;24.10;41.80;;;;;;5015852;28;20406;-56
2021/06/25 02:35:11;;;;;;;1.00;0.77;;;24.10;41.80;;;;;;5016556;28;20353;-56
2021/06/25 02:37:38;;;;;;;0.98;0.85;;;24.10;41.80;;;;;;5025208;28;20090;-56
2021/06/25 02:40:12;;;;;;;1.40;0.80;;;24.10;41.70;;;;;;5018488;28;20095;-54
2021/06/25 02:42:38;;;;;;;1.00;0.80;;;24.10;41.70;;;;;;5019309;28;20075;-53
2021/06/25 02:45:05;;;;;;;0.70;0.70;;;24.10;41.60;;;;;;5020853;28;20025;-49
2021/06/25 02:47:32;;;;;;;0.82;0.80;;;24.10;41.60;;;;;;5024011;28;20033;-51
2021/06/25 02:49:58;;;;;;;1.05;0.80;;;24.00;41.50;;;;;;5019443;28;20878;-52
2021/06/25 02:52:23;;;;;;;1.35;0.90;;;24.10;41.50;;;;;;5021191;28;20032;-54
2021/06/25 02:54:49;;;;;;;1.77;0.90;;;24.10;41.50;;;;;;5021087;28;20544;-52
2021/06/25 02:57:15;;;;;;;1.15;0.85;;;24.10;41.40;;;;;;5021780;28;20040;-51
2021/06/25 02:59:41;;;;;;;0.98;0.80;;;24.00;41.40;;;;;;5025549;28;20357;-52
2021/06/25 03:02:07;;;;;;;1.38;0.90;;;24.00;41.40;;;;;;5022700;28;20430;-51
2021/06/25 03:04:33;;;;;;;1.30;0.77;;;24.00;41.30;;;;;;5021392;28;20451;-50
2021/06/25 03:06:58;;;;;;;1.30;0.93;;;24.00;41.30;;;;;;5019310;28;20025;-49
2021/06/25 03:09:24;;;;;;;1.45;1.00;;;24.00;41.30;;;;;;5023216;28;20099;-50
2021/06/25 03:11:50;;;;;;;1.33;1.00;;;24.00;41.30;;;;;;5018519;28;20145;-50
2021/06/25 03:14:16;;;;;;;0.68;0.68;;;24.00;41.20;;;;;;5019665;28;20025;-52
2021/06/25 03:16:41;;;;;;;0.77;0.77;;;24.00;41.20;;;;;;5021124;28;20026;-51
2021/06/25 03:19:07;;;;;;;0.95;0.85;;;24.00;41.20;;;;;;5021593;28;20507;-51
2021/06/25 03:21:33;;;;;;;1.17;0.90;;;24.00;41.20;;;;;;5033977;28;20057;-55
2021/06/25 03:23:59;;;;;;;0.73;0.70;;;24.00;41.30;;;;;;5024660;28;20130;-53
2021/06/25 03:26:25;;;;;;;0.82;0.68;;;24.00;41.30;;;;;;5019484;28;20568;-48
2021/06/25 03:28:50;;;;;;;0.93;0.75;;;23.90;41.20;;;;;;5024092;28;20415;-50
2021/06/25 03:31:16;;;;;;;1.45;1.10;;;23.90;41.20;;;;;;5020966;28;20032;-48
2021/06/25 03:33:42;;;;;;;0.90;0.77;;;23.90;41.20;;;;;;5025221;28;20065;-52
2021/06/25 03:36:08;;;;;;;1.50;0.90;;;23.90;41.20;;;;;;5024354;28;20034;-53
2021/06/25 03:38:34;;;;;;;0.85;0.70;;;23.90;41.20;;;;;;5020112;28;20088;-50
2021/06/25 03:40:59;;;;;;;0.68;0.68;;;23.90;41.20;;;;;;5019341;28;20022;-53
2021/06/25 03:43:25;;;;;;;1.00;0.90;;;23.90;41.20;;;;;;5022453;28;20022;-51
2021/06/25 03:45:51;;;;;;;1.83;0.75;;;23.90;41.20;;;;;;5020486;28;20408;-53
2021/06/25 03:48:17;;;;;;;1.00;0.80;;;23.90;41.30;;;;;;5024606;28;20045;-53
2021/06/25 03:50:43;;;;;;;0.93;0.90;;;23.90;41.30;;;;;;5022942;28;20465;-53
2021/06/25 03:53:09;;;;;;;1.00;0.80;;;23.90;41.20;;;;;;5021382;28;20032;-51
2021/06/25 03:55:35;;;;;;;1.45;0.90;;;23.90;41.20;;;;;;5022669;28;20475;-52
2021/06/25 03:58:01;;;;;;;1.08;0.85;;;23.90;41.20;;;;;;5020507;28;20101;-52
2021/06/25 04:00:27;;;;;;;1.00;0.75;;;23.90;41.20;;;;;;5017052;28;20081;-49
2021/06/25 04:02:53;;;;;;;0.70;0.70;;;23.90;41.10;;;;;;5022735;28;20045;-52
2021/06/25 04:05:18;;;;;;;0.95;0.68;;;24.00;41.10;;;;;;5020949;28;20029;-54
2021/06/25 04:07:44;;;;;;;1.00;0.70;;;24.00;41.10;;;;;;5020693;28;20039;-51
2021/06/25 04:10:11;;;;;;;0.82;0.80;;;24.00;41.10;;;;;;5023046;28;20124;-48
2021/06/25 04:12:38;;;;;;;0.82;0.70;;;24.00;41.00;;;;;;5020246;28;20060;-50
2021/06/25 04:15:06;;;;;;;1.27;0.90;;;24.00;41.00;;;;;;5027986;28;20030;-56
2021/06/25 04:17:32;;;;;;;1.40;0.75;;;24.00;41.10;;;;;;5019825;28;20026;-54
2021/06/25 04:19:58;;;;;;;1.35;0.80;;;24.00;41.10;;;;;;5022478;28;20030;-52
2021/06/25 04:22:24;;;;;;;1.48;0.90;;;24.00;41.10;;;;;;5018705;28;20042;-55
2021/06/25 04:24:50;;;;;;;1.40;0.93;;;24.00;41.70;;;;;;5021266;28;20417;-53
2021/06/25 04:27:17;;;;;;;0.82;0.68;;;24.00;41.10;;;;;;5027233;28;20385;-54
2021/06/25 04:29:44;;;;;;;1.60;0.63;;;24.00;41.10;;;;;;5022036;28;20461;-53
2021/06/25 04:32:12;;;;;;;0.88;0.60;;;24.00;41.10;;;;;;5014253;28;20029;-51
2021/06/25 04:34:38;;;;;;;0.85;0.73;;;24.00;41.20;;;;;;5017643;28;20037;-48
2021/06/25 04:37:04;;;;;;;1.27;0.90;;;24.00;41.20;;;;;;5018636;28;20025;-51
2021/06/25 04:39:30;;;;;;;0.82;0.73;;;24.00;41.20;;;;;;5021804;28;20083;-49
2021/06/25 04:41:55;;;;;;;1.50;1.20;;;24.00;41.30;;;;;;5019752;28;20026;-52
2021/06/25 04:44:21;;;;;;;0.88;0.88;;;24.00;41.30;;;;;;5024076;28;20032;-53
2021/06/25 04:46:47;;;;;;;1.13;1.02;;;24.00;41.30;;;;;;5022440;28;20044;-50
2021/06/25 04:49:13;;;;;;;0.80;0.80;;;24.00;41.30;;;;;;5016978;28;20321;-54
2021/06/25 04:51:39;;;;;;;1.45;1.00;;;24.00;41.30;;;;;;5015836;28;20072;-53
2021/06/25 04:54:04;;;;;;;0.98;0.90;;;24.00;41.30;;;;;;5019639;28;20022;-49
2021/06/25 04:56:30;;;;;;;1.00;0.90;;;24.10;41.40;;;;;;5021310;28;20026;-50
2021/06/25 04:58:56;;;;;;;1.67;1.00;;;24.10;41.40;;;;;;5017705;28;20113;-51
2021/06/25 05:01:22;;;;;;;1.15;1.05;;;24.10;41.40;;;;;;5017641;28;20040;-50
2021/06/25 05:03:47;;;;;;;1.38;1.10;;;24.10;41.40;;;;;;5018111;28;20053;-55
2021/06/25 05:06:13;;;;;;;1.60;1.20;;;24.10;41.50;;;;;;5023605;28;20040;-53
2021/06/25 05:08:39;;;;;;;1.17;1.08;;;24.10;41.50;;;;;;5019987;28;20049;-53
2021/06/25 05:11:06;;;;;;;1.20;1.10;;;24.10;41.50;;;;;;5018972;28;20049;-51
2021/06/25 05:13:32;;;;;;;1.95;0.95;;;24.10;41.50;;;;;;5016505;28;20040;-53
2021/06/25 05:15:59;;;;;;;1.55;1.10;;;24.10;41.50;;;;;;5019726;28;20030;-49
2021/06/25 05:18:25;;;;;;;1.40;1.23;;;24.10;41.50;;;;;;5021857;28;20116;-53
2021/06/25 05:20:52;;;;;;;1.45;1.20;;;24.10;41.50;;;;;;5019361;28;20496;-57
2021/06/25 05:23:19;;;;;;;3.35;1.00;;;24.10;41.50;;;;;;5019628;28;20037;-51
2021/06/25 05:25:45;;;;;;;1.33;0.98;;;24.10;41.50;;;;;;5022002;28;20349;-51
2021/06/25 05:28:12;;;;;;;1.48;1.00;;;24.10;41.50;;;;;;5016820;28;20021;-54
2021/06/25 05:30:38;;;;;;;1.73;1.10;;;24.10;41.50;;;;;;5015036;28;20086;-59
2021/06/25 05:33:06;;;;;;;1.40;1.30;;;24.10;41.50;;;;;;5018255;28;20372;-57
2021/06/25 05:35:32;;;;;;;1.30;1.20;;;24.10;41.50;;;;;;5018549;28;20396;-57
2021/06/25 05:38:00;;;;;;;1.48;1.02;;;24.10;41.60;;;;;;5021501;28;20098;-56
2021/06/25 05:40:26;;;;;;;0.98;0.93;;;24.10;41.50;;;;;;5020235;28;20030;-54
2021/06/25 05:42:52;;;;;;;1.27;1.00;;;24.10;41.50;;;;;;5019294;28;20017;-55
2021/06/25 05:45:18;;;;;;;1.05;0.93;;;24.10;41.50;;;;;;5019078;28;20032;-53
2021/06/25 05:47:44;;;;;;;1.30;1.13;;;24.10;41.50;;;;;;5017345;28;20036;-51
2021/06/25 05:50:11;;;;;;;2.10;1.40;;;24.10;41.50;;;;;;5019766;28;20038;-51
2021/06/25 05:52:37;;;;;;;1.20;1.10;;;24.10;41.40;;;;;;5024001;28;20033;-55
2021/06/25 05:55:03;;;;;;;2.05;1.10;;;24.10;41.40;;;;;;5017324;28;20049;-56
2021/06/25 05:57:29;;;;;;;1.10;0.90;;;24.10;41.30;;;;;;5020474;28;20021;-57
2021/06/25 05:59:55;;;;;;;1.40;1.20;;;24.10;41.20;;;;;;5019447;28;20036;-58
2021/06/25 06:02:21;;;;;;;1.50;1.10;;;24.20;41.20;;;;;;5019816;28;20084;-54
2021/06/25 06:04:46;;;;;;;1.40;1.20;;;24.10;41.10;;;;;;5015152;28;20030;-57
2021/06/25 06:07:13;;;;;;;3.22;1.13;;;24.10;41.00;;;;;;5015491;28;20022;-55
2021/06/25 06:09:39;;;;;;;1.08;0.93;;;24.10;40.90;;;;;;5020506;28;20112;-53
2021/06/25 06:12:05;;;;;;;0.95;0.85;;;24.10;40.90;;;;;;5017912;28;20438;-56
2021/06/25 06:14:31;;;;;;;1.30;1.05;;;24.10;40.80;;;;;;5012525;28;20030;-54
2021/06/25 06:16:57;;;;;;;1.10;1.00;;;24.10;40.70;;;;;;5019354;28;20044;-53
2021/06/25 06:19:23;;;;;;;1.20;0.82;;;24.10;40.70;;;;;;5016964;28;20096;-55
2021/06/25 06:33:09;;;;;;;0.80;0.70;;;24.10;40.50;;;;;;5027389;28;20437;-54
2021/06/25 06:35:39;;;;;;;1.10;0.90;;;24.10;40.40;;;;;;5020978;28;20066;-54
2021/06/25 06:38:06;;;;;;;1.25;0.90;;;24.10;40.40;;;;;;5022738;28;20037;-54
2021/06/25 06:40:33;;;;;;;1.15;0.90;;;24.10;40.30;;;;;;5027627;28;20057;-53
2021/06/25 06:43:00;;;;;;;1.42;1.00;;;24.10;40.30;;;;;;5024131;28;20033;-53
2021/06/25 06:45:26;;;;;;;1.92;1.10;;;24.10;40.20;;;;;;5021717;28;20025;-53
2021/06/25 06:47:52;;;;;;;1.23;1.00;;;24.10;40.20;;;;;;5018822;28;20323;-50
2021/06/25 06:50:18;;;;;;;1.45;1.30;;;24.20;40.20;;;;;;5021598;28;20038;-54
2021/06/25 06:52:50;;;;;;;1.38;0.98;;;24.20;40.20;;;;;;5020512;28;20037;-52
2021/06/25 06:55:18;;;;;;;1.23;1.10;;;24.20;40.20;;;;;;5026744;28;20039;-55
2021/06/25 06:57:45;;;;;;;1.20;1.10;;;24.20;40.10;;;;;;5025265;28;20037;-54
2021/06/25 07:00:11;;;;;;;1.67;1.20;;;24.20;40.10;;;;;;5024920;28;20025;-51
2021/06/25 07:02:38;;;;;;;1.52;1.23;;;24.20;40.10;;;;;;5025715;28;20033;-50
2021/06/25 07:05:05;;;;;;;2.25;1.10;;;24.20;40.00;;;;;;5024757;28;20048;-50
2021/06/25 07:07:31;;;;;;;1.63;1.00;;;24.20;39.90;;;;;;5023726;28;20021;-51
2021/06/25 07:09:57;;;;;;;1.83;1.20;;;24.20;39.90;;;;;;5016654;28;20057;-56
2021/06/25 07:12:23;;;;;;;1.50;1.23;;;24.30;39.90;;;;;;5011255;28;20050;-51
2021/06/25 07:14:49;;;;;;;1.10;1.00;;;24.30;39.80;;;;;;5012029;28;20156;-54
2021/06/25 07:17:15;;;;;;;1.48;1.10;;;24.30;39.70;;;;;;5019363;28;20049;-53
2021/06/25 07:19:41;;;;;;;1.52;1.10;;;24.40;39.70;;;;;;5012621;28;20033;-53
2021/06/25 07:22:06;;;;;;;1.50;1.15;;;24.40;39.60;;;;;;5021500;28;20034;-50
2021/06/25 07:24:32;;;;;;;2.08;1.40;;;24.40;39.60;;;;;;5017515;28;20353;-50
2021/06/25 07:26:58;;;;;;;2.53;1.75;;;24.40;40.20;;;;;;5017810;28;20025;-47
2021/06/25 07:29:25;;;;;;;3.10;2.60;;;24.50;39.60;;;;;;5019350;28;20042;-53
2021/06/25 07:31:51;;;;;;;2.85;2.53;;;24.50;39.70;;;;;;5019752;28;20021;-53
2021/06/25 07:34:17;;;;;;;3.45;2.90;;;24.60;39.80;;;;;;5023311;28;20056;-54
2021/06/25 07:36:43;;;;;;;3.72;3.40;;;24.50;39.70;;;;;;5022697;28;20025;-52
2021/06/25 07:39:10;;;;;;;4.22;3.83;;;24.60;39.70;;;;;;5024943;28;20022;-55
2021/06/25 07:41:36;;;;;;;4.00;3.60;;;24.60;39.60;;;;;;5022646;28;20100;-53
2021/06/25 07:44:03;;;;;;;4.63;4.07;;;24.60;39.50;;;;;;5024305;28;20353;-51
2021/06/25 07:46:29;;;;;;;4.20;3.80;;;24.70;39.50;;;;;;5019402;28;20030;-52
2021/06/25 07:48:55;;;;;;;7.57;4.22;;;24.70;39.50;;;;;;5018241;28;20099;-56
2021/06/25 07:51:21;;;;;;;4.22;3.83;;;24.70;39.40;;;;;;5020342;28;20467;-52
2021/06/25 07:53:47;;;;;;;4.10;3.67;;;24.70;39.40;;;;;;5017036;28;20113;-50
2021/06/25 07:56:14;;;;;;;5.03;4.53;;;24.80;39.60;;;;;;5022384;28;20117;-55
2021/06/25 07:58:40;;;;;;;4.82;4.10;;;24.80;39.60;;;;;;5012846;28;20377;-56
2021/06/25 08:01:06;;;;;;;4.82;4.32;;;24.80;39.60;;;;;;5004940;28;20093;-56
2021/06/25 08:03:32;;;;;;;4.30;3.90;;;24.80;39.60;;;;;;5016319;28;20053;-52
2021/06/25 08:05:58;;;;;;;4.95;4.20;;;24.80;39.60;;;;;;5018149;28;20107;-52
2021/06/25 08:08:23;;;;;;;5.80;4.43;;;24.80;39.60;;;;;;5012283;28;20040;-56
2021/06/25 08:10:49;;;;;;;4.43;4.03;;;24.90;39.60;;;;;;5018322;28;20033;-52
2021/06/25 08:13:15;;;;;;;4.60;3.97;;;24.90;39.70;;;;;;5024725;28;20045;-54
2021/06/25 08:15:41;;;;;;;4.57;4.18;;;24.90;39.70;;;;;;5020096;28;20026;-58
2021/06/25 08:18:07;;;;;;;4.78;4.30;;;24.90;39.70;;;;;;5022766;28;20043;-54
2021/06/25 08:20:33;;;;;;;4.43;4.03;;;24.90;39.70;;;;;;5018055;28;20103;-54
2021/06/25 08:22:59;;;;;;;4.38;3.85;;;24.90;39.70;;;;;;5018009;28;20109;-56
2021/06/25 08:25:26;;;;;;;4.78;4.32;;;24.90;39.70;;;;;;5013932;28;20029;-52
2021/06/25 08:27:51;;;;;;;4.28;3.88;;;24.90;39.70;;;;;;5014104;28;20049;-52
2021/06/25 08:30:22;;;;;;;6.47;4.50;;;25.00;39.90;;;;;;5028417;28;20033;-52
2021/06/25 08:32:48;;;;;;;4.65;4.25;;;25.00;40.00;;;;;;5017108;28;20029;-50
2021/06/25 08:35:14;;;;;;;5.85;3.90;;;25.00;40.00;;;;;;5018096;28;20041;-51
2021/06/25 08:37:39;;;;;;;5.00;4.43;;;25.00;40.10;;;;;;5026224;28;20025;-53
2021/06/25 08:40:08;;;;;;;4.78;4.28;;;25.00;40.10;;;;;;5020449;28;20025;-54
2021/06/25 08:42:36;;;;;;;4.43;4.03;;;25.00;40.10;;;;;;5016983;28;20025;-51
2021/06/25 08:45:03;;;;;;;5.15;4.38;;;25.00;40.10;;;;;;5023497;28;20056;-55
2021/06/25 08:47:30;;;;;;;4.72;4.00;;;25.00;40.20;;;;;;5023528;28;20038;-57
2021/06/25 08:49:57;;;;;;;4.93;4.43;;;25.00;40.20;;;;;;5014080;28;20045;-54
2021/06/25 08:52:23;;;;;;;4.85;4.03;;;25.00;40.20;;;;;;5022942;28;20030;-51
2021/06/25 08:54:49;;;;;;;5.15;4.20;;;25.00;40.20;;;;;;5024541;28;20037;-52
2021/06/25 08:57:17;;;;;;;5.05;4.15;;;25.00;40.20;;;;;;5030921;28;20113;-49
2021/06/25 08:59:45;;;;;;;4.90;4.20;;;25.00;40.30;;;;;;5016866;28;20116;-49
2021/06/25 09:02:13;;;;;;;5.20;4.38;;;25.10;40.40;;;;;;5027817;28;20449;-53
2021/06/25 09:04:41;;;;;;;5.70;4.32;;;25.10;40.40;;;;;;5021560;28;20030;-51
2021/06/25 09:07:08;;;;;;;4.22;3.83;;;25.10;40.50;;;;;;5025105;28;20041;-53
2021/06/25 09:09:39;;;;;;;4.68;3.88;;;25.00;40.50;;;;;;5016648;28;20045;-51
2021/06/25 09:12:23;;;;;;;4.35;3.75;;;25.00;40.50;;;;;;5017083;28;20080;-50
2021/06/25 09:15:07;;;;;;;5.22;4.57;;;25.10;40.70;;;;;;5025185;28;20060;-49
2021/06/25 09:17:52;;;;;;;5.25;4.40;;;25.10;40.70;;;;;;5014476;28;20033;-50
2021/06/25 09:20:35;;;;;;;5.22;4.60;;;25.00;40.70;;;;;;5021574;28;20030;-57
2021/06/25 09:23:31;;;;;;;3.30;3.00;;;25.10;40.90;;;;;;5026852;28;20040;-53
2021/06/25 09:25:58;;;;;;;3.25;2.95;;;25.00;40.80;;;;;;5020443;28;20060;-51
2021/06/25 09:28:29;;;;;;;3.63;3.28;;;25.00;40.90;;;;;;5032298;28;20033;-54
2021/06/25 09:30:55;;;;;;;4.13;3.15;;;25.00;41.00;;;;;;5010419;28;20121;-50
2021/06/25 09:33:22;;;;;;;3.90;3.42;;;25.00;41.20;;;;;;5003942;28;20084;-50
2021/06/25 09:35:53;;;;;;;3.75;3.35;;;25.10;41.30;;;;;;5023857;28;20018;-50
2021/06/25 09:38:32;;;;;;;4.43;3.85;;;25.10;41.30;;;;;;5015922;28;20524;-51
2021/06/25 09:40:58;;;;;;;4.65;3.33;;;25.10;41.30;;;;;;5021318;28;20080;-60
2021/06/25 09:43:33;;;;;;;5.28;4.03;;;25.10;41.30;;;;;;5014316;28;20374;-56
2021/06/25 09:46:02;;;;;;;6.38;3.90;;;25.10;41.30;;;;;;5018139;28;20029;-56
2021/06/25 09:48:55;;;;;;;4.10;3.38;;;25.10;41.40;;;;;;5016211;28;20080;-58
2021/06/25 09:51:22;;;;;;;4.82;4.32;;;25.20;41.40;;;;;;5024274;28;20030;-57
2021/06/25 09:54:11;;;;;;;5.07;3.78;;;25.10;41.40;;;;;;5027535;28;20071;-57
2021/06/25 09:57:01;;;;;;;7.45;4.30;;;25.20;41.40;;;;;;5017636;28;20052;-58
2021/06/25 10:02:18;;;;;;;5.43;4.20;;;25.20;41.50;;;;;;5023303;28;20050;-56
2021/06/25 10:04:49;;;;;;;4.82;4.10;;;25.20;41.40;;;;;;5023392;28;20156;-57
2021/06/25 10:07:17;;;;;;;6.43;4.10;;;25.10;41.40;;;;;;5015430;28;20038;-56
2021/06/25 10:09:44;;;;;;;5.70;4.22;;;25.10;41.30;;;;;;5020146;28;20045;-57
2021/06/25 10:12:13;;;;;;;5.35;3.85;;;25.20;41.30;;;;;;5025785;28;20053;-58
2021/06/25 10:14:40;;;;;;;6.03;4.47;;;25.10;41.20;;;;;;5019178;28;20434;-57
2021/06/25 10:17:11;;;;;;;4.28;3.63;;;25.20;41.20;;;;;;5025367;28;20037;-55
2021/06/25 10:19:48;;;;;;;5.47;4.05;;;25.20;41.20;;;;;;5021206;28;20037;-59
2021/06/25 10:22:17;;;;;;;4.95;3.55;;;25.20;41.10;;;;;;5021770;28;20049;-57
2021/06/25 10:24:48;;;;;;;4.97;3.65;;;25.20;41.10;;;;;;5020258;28;20045;-55
2021/06/25 10:27:16;;;;;;;5.03;4.22;;;25.20;41.00;;;;;;5023455;28;20372;-59
2021/06/25 10:29:42;;;;;;;4.82;3.80;;;25.20;41.00;;;;;;5027677;28;20057;-58
2021/06/25 10:32:09;;;;;;;4.93;4.18;;;25.20;41.00;;;;;;5024984;28;20021;-57
2021/06/25 10:34:39;;;;;;;4.85;3.60;;;25.20;41.00;;;;;;5015393;28;20108;-58
2021/06/25 10:37:10;;;;;;;8.40;3.92;;;25.20;41.00;;;;;;5018175;28;20038;-54
2021/06/25 10:39:36;;;;;;;4.97;4.03;;;25.20;41.00;;;;;;5013745;28;20389;-51
2021/06/25 10:42:09;;;;;;;4.55;3.80;;;25.20;40.90;;;;;;5018972;28;20407;-54
2021/06/25 10:44:52;;;;;;;4.30;3.90;;;25.20;40.90;;;;;;5025224;28;20030;-57
2021/06/25 10:47:33;;;;;;;3.88;3.30;;;25.30;41.00;;;;;;5016020;28;20349;-52
2021/06/25 10:49:59;;;;;;;4.50;3.58;;;25.20;41.00;;;;;;5019610;28;20401;-54
2021/06/25 10:52:30;;;;;;;3.83;3.35;;;25.20;41.10;;;;;;5023514;28;20033;-54
2021/06/25 10:55:03;;;;;;;3.92;3.20;;;25.30;41.20;;;;;;5023906;28;20084;-54
2021/06/25 10:57:32;;;;;;;7.40;3.08;;;25.30;41.30;;;;;;5021074;28;20091;-54
2021/06/25 10:59:58;;;;;;;3.78;3.30;;;25.30;41.40;;;;;;5029830;28;20026;-50
2021/06/25 11:02:44;;;;;;;3.78;3.40;;;25.30;41.40;;;;;;5026768;28;20040;-54
2021/06/25 11:05:26;;;;;;;4.18;3.13;;;25.40;41.50;;;;;;5023157;28;20063;-54
2021/06/25 11:08:01;;;;;;;3.35;3.00;;;25.40;41.50;;;;;;5023559;28;20029;-56
2021/06/25 11:10:33;;;;;;;3.55;2.78;;;25.40;41.60;;;;;;5024310;28;20049;-49
2021/06/25 11:13:21;;;;;;;4.47;3.60;;;25.40;41.60;;;;;;5020306;28;20053;-52
2021/06/25 11:15:50;;;;;;;4.18;3.42;;;25.50;41.60;;;;;;5024101;28;20103;-56
2021/06/25 11:18:17;;;;;;;3.65;2.97;;;25.50;41.70;;;;;;5022594;28;20025;-54
2021/06/25 11:20:57;;;;;;;3.53;2.92;;;25.50;41.60;;;;;;5026906;28;20055;-53
2021/06/25 11:23:27;;;;;;;3.78;3.13;;;25.60;41.60;;;;;;5024562;28;20056;-54
2021/06/25 11:25:58;;;;;;;3.97;3.35;;;25.60;41.60;;;;;;5015831;28;20449;-52
2021/06/25 11:28:33;;;;;;;3.88;3.28;;;25.60;41.50;;;;;;5020996;28;20408;-55
2021/06/25 11:31:00;;;;;;;3.75;3.42;;;25.60;41.50;;;;;;5017192;28;20053;-56
2021/06/25 11:33:50;;;;;;;3.95;3.00;;;25.60;41.50;;;;;;5022472;28;20026;-56
2021/06/25 11:36:30;;;;;;;3.80;3.03;;;25.60;41.50;;;;;;5023064;28;20112;-52
2021/06/25 11:39:16;;;;;;;3.78;3.20;;;25.60;41.50;;;;;;5020126;28;21474;-51
2021/06/25 11:41:48;;;;;;;3.70;2.92;;;25.70;41.60;;;;;;5018601;28;20036;-50
2021/06/25 11:44:16;;;;;;;6.68;3.30;;;25.70;41.60;;;;;;5018754;28;20445;-54
2021/06/25 11:47:01;;;;;;;3.42;3.13;;;25.70;41.70;;;;;;5019931;28;20026;-58
2021/06/25 11:49:37;;;;;;;3.55;3.15;;;25.80;41.70;;;;;;5016535;28;20048;-55
2021/06/25 11:52:12;;;;;;;6.30;3.60;;;25.70;41.70;;;;;;5021921;28;20033;-55
2021/06/25 11:54:40;;;;;;;3.97;3.47;;;25.80;41.70;;;;;;5017749;28;20033;-50
2021/06/25 11:57:15;;;;;;;4.30;3.53;;;25.80;41.70;;;;;;5015191;28;20033;-52
2021/06/25 11:59:52;;;;;;;4.60;3.97;;;25.80;41.60;;;;;;5015665;28;20129;-52
2021/06/25 12:02:19;;;;;;;3.60;3.30;;;25.80;41.60;;;;;;5020257;28;20487;-56
2021/06/25 12:04:45;;;;;;;3.28;3.00;;;25.80;41.60;;;;;;5015390;28;20125;-54
2021/06/25 12:07:13;;;;;;;4.57;3.33;;;25.80;41.60;;;;;;5016553;28;20118;-55
2021/06/25 12:09:50;;;;;;;3.83;3.13;;;25.80;41.60;;;;;;5016927;28;20369;-54
2021/06/25 12:12:29;;;;;;;4.20;2.75;;;25.80;41.60;;;;;;5015181;28;20056;-54
2021/06/25 12:15:09;;;;;;;3.42;3.10;;;25.80;41.50;;;;;;5021555;28;20445;-54
2021/06/25 12:17:40;;;;;;;4.25;3.67;;;25.80;41.50;;;;;;5021800;28;20092;-56
2021/06/25 12:20:09;;;;;;;3.92;3.10;;;25.80;41.50;;;;;;5023173;28;20025;-56
2021/06/25 12:22:48;;;;;;;3.92;3.50;;;25.80;41.50;;;;;;5019324;28;20037;-54
2021/06/25 12:25:14;;;;;;;3.30;3.00;;;25.90;41.50;;;;;;5023526;28;20121;-54
2021/06/25 12:27:42;;;;;;;3.53;2.90;;;25.90;41.60;;;;;;5025464;28;20341;-55
2021/06/25 12:30:15;;;;;;;3.00;2.70;;;25.90;41.50;;;;;;5021658;28;20053;-53
2021/06/25 12:32:42;;;;;;;3.70;3.03;;;25.90;41.50;;;;;;5020850;28;20040;-53
2021/06/25 12:35:09;;;;;;;4.32;2.78;;;25.90;41.50;;;;;;5019671;28;20728;-55
2021/06/25 12:37:52;;;;;;;3.25;2.67;;;25.90;41.40;;;;;;5020005;28;20044;-53
2021/06/25 12:40:36;;;;;;;2.90;2.60;;;25.90;41.30;;;;;;5024341;28;20029;-53
2021/06/25 12:43:03;;;;;;;2.58;2.30;;;25.90;41.30;;;;;;5019470;28;20133;-56
2021/06/25 12:45:42;;;;;;;2.72;2.50;;;25.90;41.30;;;;;;5022973;28;20112;-56
2021/06/25 12:48:21;;;;;;;2.58;2.38;;;25.90;41.20;;;;;;5021650;28;20079;-56
2021/06/25 12:50:47;;;;;;;2.50;2.30;;;25.90;41.20;;;;;;5025362;28;20149;-55
2021/06/25 12:53:23;;;;;;;2.55;2.30;;;25.90;41.10;;;;;;5019430;28;20037;-55
2021/06/25 12:55:50;;;;;;;3.25;2.17;;;25.90;41.10;;;;;;5018952;28;20395;-53
2021/06/25 12:58:19;;;;;;;2.90;2.40;;;25.90;41.10;;;;;;5022534;28;20025;-52
2021/06/25 13:00:58;;;;;;;2.40;2.20;;;25.90;41.00;;;;;;5023174;28;20056;-54
2021/06/25 13:03:26;;;;;;;3.55;2.58;;;25.90;41.00;;;;;;5020421;28;20349;-52
2021/06/25 13:05:52;;;;;;;2.72;2.40;;;25.90;40.90;;;;;;5022236;28;20172;-56
2021/06/25 13:08:22;;;;;;;2.40;2.20;;;25.90;40.80;;;;;;5022181;28;20029;-55